Time;durP1;ratioP1;P1;durP2;ratioP2;P2;SDS_P1;SDS_P2;PMS_P1;PMS_P2;Temp;Humidity;BMP_temperature;BMP_pressure;BME280_temperature;BME280_humidity;BME280_pressure;Samples;Min_cycle;Max_cycle;Signal;HPM_P1;HPM_P2
2022/09/01 00:01:48;;;;;;;1.75;1.10;;;;;;;21.82;37.69;101931.13;5090955;28;20123;-66
2022/09/01 00:04:25;;;;;;;2.13;1.20;;;;;;;21.80;38.18;101923.06;5092543;28;20048;-67
2022/09/01 00:06:54;;;;;;;3.75;1.00;;;;;;;21.81;37.72;101926.69;5091943;28;20040;-66
2022/09/01 00:09:22;;;;;;;6.32;1.40;;;;;;;21.81;38.09;101929.41;5091127;28;20048;-67
2022/09/01 00:11:51;;;;;;;1.55;1.00;;;;;;;21.80;38.06;101922.22;5080019;28;20052;-66
2022/09/01 00:14:27;;;;;;;3.08;1.13;;;;;;;21.77;38.54;101928.00;5071251;28;20067;-66
2022/09/01 00:17:01;;;;;;;2.55;1.30;;;;;;;21.76;38.41;101929.03;5070884;28;20069;-66
2022/09/01 00:19:29;;;;;;;3.17;1.20;;;;;;;21.74;38.55;101920.97;5071344;28;20036;-65
2022/09/01 00:21:56;;;;;;;5.32;1.35;;;;;;;21.73;38.43;101923.84;5036817;28;20044;-67
2022/09/01 00:24:24;;;;;;;1.42;1.02;;;;;;;21.69;38.90;101927.91;5071115;28;20048;-66
2022/09/01 00:26:53;;;;;;;4.03;1.23;;;;;;;21.67;38.69;101927.22;5071182;28;20406;-66
2022/09/01 00:29:20;;;;;;;2.13;1.20;;;;;;;21.66;38.64;101929.09;5072411;28;20389;-66
2022/09/01 00:31:47;;;;;;;3.78;1.40;;;;;;;21.64;38.94;101922.91;5053201;28;20053;-66
2022/09/01 00:34:14;;;;;;;1.15;0.80;;;;;;;21.62;39.34;101926.81;5071037;28;20036;-66
2022/09/01 00:36:43;;;;;;;1.83;1.00;;;;;;;21.57;39.03;101924.56;5073947;28;20041;-66
2022/09/01 00:39:09;;;;;;;2.45;1.10;;;;;;;21.53;39.06;101918.50;5076194;28;20119;-66
2022/09/01 00:41:38;;;;;;;1.98;1.00;;;;;;;21.52;39.45;101919.50;5095187;28;20035;-66
2022/09/01 00:44:13;;;;;;;4.20;1.02;;;;;;;21.53;39.56;101928.56;5095564;28;20440;-66
2022/09/01 00:46:43;;;;;;;4.25;1.40;;;;;;;21.50;39.33;101920.69;5069486;28;20072;-66
2022/09/01 00:49:28;;;;;;;3.63;1.10;;;;;;;21.48;39.47;101922.72;5074971;28;20398;-66
2022/09/01 00:52:05;;;;;;;1.50;1.10;;;;;;;21.45;39.41;101921.16;5074642;28;20090;-66
2022/09/01 00:54:42;;;;;;;2.50;1.23;;;;;;;21.42;39.57;101916.00;5074681;28;20091;-66
2022/09/01 00:57:11;;;;;;;2.05;1.20;;;;;;;21.42;39.60;101915.13;5057057;28;20060;-66
2022/09/01 01:00:00;;;;;;;2.70;1.55;;;;;;;21.40;39.94;101917.16;5056528;28;20490;-66
2022/09/01 01:02:27;;;;;;;2.80;1.08;;;;;;;21.41;39.71;101916.13;5056051;28;20045;-66
2022/09/01 01:04:58;;;;;;;2.55;1.20;;;;;;;21.39;40.12;101916.28;5079194;28;20051;-66
2022/09/01 01:07:26;;;;;;;3.80;1.25;;;;;;;21.39;39.69;101908.09;5094724;28;20052;-65
2022/09/01 01:09:53;;;;;;;4.97;1.45;;;;;;;21.39;40.25;101910.81;5094604;28;20044;-65
2022/09/01 01:12:20;;;;;;;1.95;1.25;;;;;;;21.37;39.90;101906.53;5094331;28;20058;-66
2022/09/01 01:14:49;;;;;;;5.13;1.38;;;;;;;21.33;39.84;101900.50;5089903;28;20502;-66
2022/09/01 01:17:21;;;;;;;4.00;1.25;;;;;;;21.32;40.22;101906.13;5074034;28;20588;-66
2022/09/01 01:25:25;;;;;;;3.97;1.42;;;;;;;21.22;40.30;101911.63;5056396;28;20465;-66
2022/09/01 01:27:51;;;;;;;1.85;1.35;;;;;;;21.18;40.38;101913.81;5074564;28;20176;-66
2022/09/01 01:30:19;;;;;;;2.95;1.13;;;;;;;21.15;40.41;101908.63;5073767;28;20514;-65
2022/09/01 01:32:46;;;;;;;2.88;1.20;;;;;;;21.11;40.33;101906.38;5073970;28;20040;-66
2022/09/01 01:35:15;;;;;;;2.13;1.10;;;;;;;21.09;40.95;101897.47;5065358;28;20040;-65
2022/09/01 01:37:47;;;;;;;3.13;1.30;;;;;;;21.08;40.59;101914.84;5060812;28;20579;-66
2022/09/01 01:40:20;;;;;;;3.83;1.58;;;;;;;21.05;40.53;101910.56;5055957;28;20048;-66
2022/09/01 01:42:50;;;;;;;1.38;1.10;;;;;;;21.04;40.87;101911.56;5055810;28;20040;-65
2022/09/01 01:45:20;;;;;;;5.68;1.33;;;;;;;21.03;40.75;101917.19;5066086;28;20497;-66
2022/09/01 01:47:51;;;;;;;2.30;1.15;;;;;;;20.99;41.09;101921.22;5093459;28;20434;-66
2022/09/01 01:50:26;;;;;;;4.25;1.70;;;;;;;20.94;40.83;101916.22;5075846;28;20055;-65
2022/09/01 01:52:58;;;;;;;2.22;1.35;;;;;;;20.91;41.12;101920.13;5093800;28;20478;-65
2022/09/01 01:55:27;;;;;;;1.95;1.05;;;;;;;20.88;41.13;101920.41;5066141;28;20037;-67
2022/09/01 01:57:57;;;;;;;2.53;1.45;;;;;;;20.86;41.03;101927.91;5055827;28;20037;-66
2022/09/01 02:00:31;;;;;;;2.30;1.30;;;;;;;20.85;41.42;101917.13;5055965;28;20041;-66
2022/09/01 02:02:58;;;;;;;1.63;1.38;;;;;;;20.83;41.45;101925.47;5073671;28;20055;-66
2022/09/01 02:05:28;;;;;;;2.30;1.33;;;;;;;20.79;41.60;101918.53;5055564;28;20040;-66
2022/09/01 02:07:58;;;;;;;4.25;1.38;;;;;;;20.77;41.45;101914.25;5073562;28;20060;-66
2022/09/01 02:10:32;;;;;;;1.45;1.27;;;;;;;20.75;41.74;101917.13;5055428;28;20499;-66
2022/09/01 02:13:05;;;;;;;4.72;1.35;;;;;;;20.70;41.65;101916.72;5058638;28;20044;-66
2022/09/01 02:15:43;;;;;;;2.00;1.50;;;;;;;20.67;41.48;101918.88;5093811;28;20140;-66
2022/09/01 02:18:13;;;;;;;1.98;1.30;;;;;;;20.64;41.57;101922.78;5071996;28;20044;-66
2022/09/01 02:20:40;;;;;;;3.50;1.27;;;;;;;20.62;41.75;101917.47;5072180;28;20046;-66
2022/09/01 02:23:18;;;;;;;2.75;1.30;;;;;;;20.61;41.59;101920.34;5067537;28;20064;-66
2022/09/01 02:25:45;;;;;;;4.40;1.60;;;;;;;20.58;41.79;101917.91;5052012;28;20119;-67
2022/09/01 02:28:35;;;;;;;2.85;1.70;;;;;;;20.55;41.74;101918.19;5053721;28;20037;-67
2022/09/01 02:31:03;;;;;;;1.50;1.27;;;;;;;20.55;41.81;101918.19;5055859;28;20562;-67
2022/09/01 02:33:32;;;;;;;1.83;1.10;;;;;;;20.55;41.85;101921.78;5072921;28;20048;-66
2022/09/01 02:36:04;;;;;;;3.13;1.60;;;;;;;20.56;42.01;101917.19;5072010;28;20044;-66
2022/09/01 02:38:32;;;;;;;2.75;1.33;;;;;;;20.55;42.04;101913.59;5071922;28;20075;-66
2022/09/01 02:41:02;;;;;;;1.60;1.13;;;;;;;20.52;42.07;101916.63;5071171;28;20075;-67
2022/09/01 02:43:55;;;;;;;2.33;1.50;;;;;;;20.47;42.16;101909.91;5071499;28;20525;-67
2022/09/01 02:46:22;;;;;;;2.60;1.40;;;;;;;20.45;42.15;101911.91;5072939;28;20513;-66
2022/09/01 02:48:51;;;;;;;2.60;1.58;;;;;;;20.44;42.19;101907.47;5073303;28;20032;-67
2022/09/01 02:51:21;;;;;;;1.65;1.23;;;;;;;20.40;42.12;101912.34;5068795;28;20052;-66
2022/09/01 02:53:51;;;;;;;4.90;1.38;;;;;;;20.37;41.96;101912.59;5053094;28;20041;-66
2022/09/01 02:56:24;;;;;;;2.33;1.48;;;;;;;20.30;42.45;101908.75;5052949;28;20099;-66
2022/09/01 02:58:53;;;;;;;3.80;1.50;;;;;;;20.23;42.15;101910.34;5051448;28;20396;-66
2022/09/01 03:01:28;;;;;;;1.83;1.42;;;;;;;20.19;42.22;101907.03;5052811;28;20041;-66
2022/09/01 03:04:04;;;;;;;2.70;1.40;;;;;;;20.17;42.52;101909.06;5052419;28;20473;-67
2022/09/01 03:06:32;;;;;;;3.15;1.60;;;;;;;20.15;42.49;101902.88;5053655;28;20128;-67
2022/09/01 03:09:03;;;;;;;2.20;1.33;;;;;;;20.13;42.60;101893.13;5051330;28;20048;-66
2022/09/01 03:11:33;;;;;;;2.78;1.48;;;;;;;20.09;42.40;101899.88;5052379;28;20040;-66
2022/09/01 03:14:07;;;;;;;2.72;1.60;;;;;;;20.06;42.77;101898.28;5034630;28;20483;-66
2022/09/01 03:16:35;;;;;;;2.35;1.50;;;;;;;20.02;42.53;101902.28;5052239;28;20143;-68
2022/09/01 03:19:06;;;;;;;2.90;1.30;;;;;;;19.98;43.00;101901.72;5054426;28;20040;-67
2022/09/01 03:21:33;;;;;;;3.50;1.40;;;;;;;19.96;42.78;101897.41;5053866;28;20044;-66
2022/09/01 03:24:04;;;;;;;4.50;1.58;;;;;;;19.95;42.67;101903.88;5054120;28;20037;-66
2022/09/01 03:26:31;;;;;;;2.67;1.30;;;;;;;19.94;43.19;101899.44;5054314;28;20403;-66
2022/09/01 03:28:58;;;;;;;3.60;1.65;;;;;;;19.92;42.97;101904.16;5072297;28;20075;-67
2022/09/01 03:31:28;;;;;;;4.25;1.80;;;;;;;19.89;42.75;101899.00;5053865;28;20506;-67
2022/09/01 03:34:02;;;;;;;3.10;1.42;;;;;;;19.85;42.84;101903.88;5053752;28;20041;-66
2022/09/01 03:36:33;;;;;;;3.13;1.70;;;;;;;19.83;42.85;101896.84;5071587;28;20048;-66
2022/09/01 03:39:00;;;;;;;4.43;1.67;;;;;;;19.78;42.97;101905.47;5071683;28;20040;-66
2022/09/01 03:41:29;;;;;;;6.15;1.30;;;;;;;19.76;43.04;101890.25;5053764;28;20047;-66
2022/09/01 03:43:57;;;;;;;2.85;1.45;;;;;;;19.74;43.18;101900.44;5053753;28;20044;-67
2022/09/01 03:46:32;;;;;;;2.85;1.60;;;;;;;19.72;43.28;101900.59;5053702;28;20456;-67
2022/09/01 03:49:06;;;;;;;3.28;1.67;;;;;;;19.71;43.04;101907.03;5053696;28;20036;-66
2022/09/01 03:51:36;;;;;;;3.28;1.42;;;;;;;19.67;43.09;101895.56;5037161;28;20491;-68
2022/09/01 03:54:06;;;;;;;3.47;1.30;;;;;;;19.64;42.88;101895.84;5053561;28;20071;-67
2022/09/01 03:56:33;;;;;;;2.42;1.60;;;;;;;19.61;43.23;101904.31;5053237;28;20044;-67
2022/09/01 03:58:59;;;;;;;3.40;1.70;;;;;;;19.58;42.93;101904.59;5053527;28;20410;-67
2022/09/01 04:01:36;;;;;;;1.80;1.15;;;;;;;19.55;43.20;101902.16;5053370;28;20040;-66
2022/09/01 04:04:12;;;;;;;3.42;1.48;;;;;;;19.51;43.16;101889.78;5070444;28;20051;-66
2022/09/01 04:06:41;;;;;;;3.08;1.42;;;;;;;19.48;43.04;101898.22;5071536;28;20040;-67
2022/09/01 04:09:09;;;;;;;2.78;1.45;;;;;;;19.47;43.08;101896.50;5072433;28;20562;-66
2022/09/01 04:11:38;;;;;;;3.53;1.38;;;;;;;19.46;42.93;101897.50;5076323;28;20047;-67
2022/09/01 04:14:16;;;;;;;2.00;1.30;;;;;;;19.45;43.17;101897.66;5077628;28;20352;-67
2022/09/01 04:19:35;;;;;;;5.07;1.58;;;;;;;19.41;43.30;101894.34;5076831;28;20044;-66
2022/09/01 04:22:03;;;;;;;5.10;1.48;;;;;;;19.38;42.92;101891.91;5077497;28;20040;-67
2022/09/01 04:24:44;;;;;;;3.75;1.60;;;;;;;19.35;42.95;101889.47;5077513;28;20045;-66
2022/09/01 04:27:12;;;;;;;2.15;1.35;;;;;;;19.33;43.13;101891.47;5076087;28;20551;-66
2022/09/01 04:29:40;;;;;;;2.55;1.33;;;;;;;19.31;43.28;101893.44;5077230;28;20602;-66
2022/09/01 04:32:11;;;;;;;3.38;1.38;;;;;;;19.28;42.97;101900.03;5077086;28;20139;-66
2022/09/01 04:34:42;;;;;;;2.13;1.17;;;;;;;19.27;43.42;101900.16;5077351;28;20135;-66
2022/09/01 04:37:18;;;;;;;2.38;1.27;;;;;;;19.27;43.18;101897.44;5066111;28;20068;-66
2022/09/01 04:39:54;;;;;;;2.30;1.00;;;;;;;19.27;43.36;101897.44;5057337;28;20040;-66
2022/09/01 04:42:27;;;;;;;3.10;1.40;;;;;;;19.28;43.20;101893.72;5040884;28;20099;-66
2022/09/01 04:44:59;;;;;;;2.53;1.10;;;;;;;19.28;43.28;101900.03;5040532;28;20048;-66
2022/09/01 04:47:40;;;;;;;1.88;1.20;;;;;;;19.29;43.33;101898.16;5076281;28;20044;-66
2022/09/01 04:50:13;;;;;;;3.80;1.52;;;;;;;19.27;43.14;101897.44;5057407;28;20076;-67
2022/09/01 04:52:46;;;;;;;2.20;1.50;;;;;;;19.27;43.28;101897.44;5074913;28;20029;-67
2022/09/01 04:55:28;;;;;;;2.05;1.10;;;;;;;19.26;43.09;101899.31;5057142;28;20057;-66
2022/09/01 04:58:00;;;;;;;4.63;1.10;;;;;;;19.23;43.00;101896.88;5056950;28;20098;-66
2022/09/01 05:00:31;;;;;;;2.75;1.50;;;;;;;19.24;43.35;101903.16;5040727;28;20482;-67
2022/09/01 05:03:03;;;;;;;2.80;1.33;;;;;;;19.26;43.38;101902.03;5040329;28;20083;-66
2022/09/01 05:05:53;;;;;;;2.15;1.20;;;;;;;19.28;43.33;101901.88;5064593;28;20056;-67
2022/09/01 05:08:22;;;;;;;2.05;1.00;;;;;;;19.27;43.55;101901.03;5057074;28;20044;-67
2022/09/01 05:10:54;;;;;;;1.77;1.17;;;;;;;19.27;43.34;101902.91;5056748;28;20041;-66
2022/09/01 05:13:48;;;;;;;3.20;1.30;;;;;;;19.23;43.58;101905.03;5071237;28;20048;-67
2022/09/01 05:16:20;;;;;;;1.98;1.17;;;;;;;19.21;43.04;101903.44;5073568;28;20139;-66
2022/09/01 05:18:55;;;;;;;2.10;1.00;;;;;;;19.19;43.28;101900.88;5057948;28;20055;-66
2022/09/01 05:21:27;;;;;;;2.50;1.45;;;;;;;19.21;43.08;101911.63;5073098;28;20494;-66
2022/09/01 05:24:00;;;;;;;3.63;1.50;;;;;;;19.21;43.14;101909.75;5056846;28;20094;-66
2022/09/01 05:26:29;;;;;;;6.28;1.25;;;;;;;19.20;43.27;101902.59;5072082;28;20051;-66
2022/09/01 05:28:59;;;;;;;5.40;1.40;;;;;;;19.20;43.51;101908.03;5073592;28;20402;-66
2022/09/01 05:31:33;;;;;;;2.55;1.33;;;;;;;19.20;43.19;101916.22;5073037;28;20044;-66
2022/09/01 05:34:03;;;;;;;4.93;1.52;;;;;;;19.21;43.41;101915.22;5070290;28;20033;-66
2022/09/01 05:36:32;;;;;;;2.47;1.02;;;;;;;19.20;43.19;101913.47;5073189;28;20072;-66
2022/09/01 05:39:00;;;;;;;3.05;1.30;;;;;;;19.22;43.29;101908.75;5073210;28;20036;-66
2022/09/01 05:41:27;;;;;;;1.70;1.02;;;;;;;19.24;43.07;101919.50;5056861;28;20049;-67
2022/09/01 05:43:55;;;;;;;3.42;1.50;;;;;;;19.27;43.03;101919.22;5063429;28;20467;-66
2022/09/01 05:46:27;;;;;;;5.50;1.30;;;;;;;19.30;43.07;101921.69;5053037;28;20045;-66
2022/09/01 05:48:57;;;;;;;2.00;1.30;;;;;;;19.31;43.53;101920.69;5062521;28;20500;-66
2022/09/01 05:51:27;;;;;;;1.63;1.20;;;;;;;19.29;43.17;101926.25;5059900;28;20048;-66
2022/09/01 05:54:13;;;;;;;3.78;1.38;;;;;;;19.27;43.18;101920.09;5060325;28;20034;-66
2022/09/01 05:56:42;;;;;;;2.72;1.10;;;;;;;19.27;43.55;101927.41;5053053;28;20048;-66
2022/09/01 05:59:13;;;;;;;3.58;1.67;;;;;;;19.27;43.22;101925.53;5053108;28;20132;-67
2022/09/01 06:01:52;;;;;;;2.30;1.23;;;;;;;19.30;43.19;101929.84;5053065;28;20045;-66
2022/09/01 06:04:23;;;;;;;8.93;1.80;;;;;;;19.32;43.19;101925.13;5069087;28;20036;-66
2022/09/01 06:06:52;;;;;;;6.35;1.17;;;;;;;19.34;43.40;101924.00;5073418;28;20475;-66
2022/09/01 06:09:42;;;;;;;4.07;1.73;;;;;;;19.36;43.52;101929.31;5073114;28;20041;-67
2022/09/01 06:12:16;;;;;;;3.65;1.50;;;;;;;19.38;43.34;101927.31;5062247;28;20039;-66
2022/09/01 06:14:47;;;;;;;3.85;1.52;;;;;;;19.39;43.40;101929.03;5063398;28;20479;-66
2022/09/01 06:17:23;;;;;;;4.55;1.45;;;;;;;19.43;43.19;101940.53;5078540;28;20511;-66
2022/09/01 06:19:54;;;;;;;4.50;1.27;;;;;;;19.46;43.53;101937.50;5075869;28;20432;-67
2022/09/01 06:22:23;;;;;;;5.85;1.77;;;;;;;19.50;43.41;101936.22;5073277;28;20075;-66
2022/09/01 06:24:53;;;;;;;3.47;1.65;;;;;;;19.56;43.82;101942.00;5075381;28;20036;-65
2022/09/01 06:27:28;;;;;;;4.10;1.30;;;;;;;19.62;43.66;101936.00;5074688;28;20044;-65
2022/09/01 06:29:56;;;;;;;2.22;1.17;;;;;;;19.70;43.50;101934.44;5075224;28;20058;-70
2022/09/01 06:32:25;;;;;;;6.65;1.58;;;;;;;19.77;43.78;101933.72;5073577;28;20413;-66
2022/09/01 06:34:56;;;;;;;3.50;1.40;;;;;;;19.87;43.48;101941.91;5065504;28;20085;-66
2022/09/01 06:37:24;;;;;;;3.40;1.63;;;;;;;19.96;43.38;101938.31;5075237;28;20040;-67
2022/09/01 06:39:54;;;;;;;2.22;1.60;;;;;;;20.07;43.49;101935.47;5074973;28;20036;-66
2022/09/01 06:42:22;;;;;;;2.53;1.40;;;;;;;20.22;43.50;101942.22;5073538;28;20083;-66
2022/09/01 06:44:58;;;;;;;2.55;1.10;;;;;;;20.38;43.35;101938.88;5058820;28;20047;-66
2022/09/01 06:47:27;;;;;;;4.43;1.30;;;;;;;20.57;43.25;101941.59;5054847;28;20506;-66
2022/09/01 06:49:58;;;;;;;6.07;1.40;;;;;;;20.75;43.36;101946.28;5054939;28;20037;-66
2022/09/01 06:52:26;;;;;;;3.13;1.70;;;;;;;20.92;43.15;101938.22;5072294;28;20127;-66
2022/09/01 06:54:59;;;;;;;5.82;1.52;;;;;;;21.08;42.63;101943.03;5075258;28;20059;-65
2022/09/01 06:57:31;;;;;;;3.60;1.30;;;;;;;21.24;42.47;101943.28;5074635;28;20071;-66
2022/09/01 07:00:19;;;;;;;4.78;1.70;;;;;;;21.40;42.26;101941.75;5074778;28;20051;-66
2022/09/01 07:02:53;;;;;;;6.05;2.08;;;;;;;21.56;42.50;101948.28;5074041;28;20048;-66
2022/09/01 07:05:44;;;;;;;4.13;1.63;;;;;;;21.78;42.02;101944.25;5054694;28;20045;-66
2022/09/01 07:08:48;;;;;;;4.15;1.80;;;;;;;22.00;41.71;101953.00;5073251;28;20063;-67
2022/09/01 07:11:36;;;;;;;5.22;1.60;;;;;;;22.18;41.46;101948.41;5054486;28;20464;-67
2022/09/01 07:14:24;;;;;;;5.25;1.77;;;;;;;22.32;41.30;101947.88;5054532;28;20043;-67
2022/09/01 07:16:51;;;;;;;1.83;1.10;;;;;;;22.46;41.06;101952.78;5072779;28;20494;-67
2022/09/01 07:19:38;;;;;;;3.83;1.60;;;;;;;22.63;41.17;101953.75;5074346;28;20047;-67
2022/09/01 07:22:20;;;;;;;3.60;1.40;;;;;;;22.76;40.66;101958.81;5074225;28;20036;-66
2022/09/01 07:25:11;;;;;;;3.60;1.10;;;;;;;22.90;40.36;101960.13;5070683;28;20135;-67
2022/09/01 07:28:05;;;;;;;2.03;1.42;;;;;;;23.01;40.00;101963.44;5054630;28;20056;-66
2022/09/01 07:30:33;;;;;;;2.55;1.30;;;;;;;23.10;40.09;101959.75;5054210;28;20131;-67
2022/09/01 07:33:00;;;;;;;6.10;1.50;;;;;;;23.19;40.00;101949.69;5053920;28;20083;-66
2022/09/01 07:35:54;;;;;;;5.72;1.52;;;;;;;23.26;39.52;101948.00;5064071;28;20040;-68
2022/09/01 07:38:42;;;;;;;6.35;1.23;;;;;;;23.37;39.43;101953.16;5074193;28;20040;-67
2022/09/01 07:41:29;;;;;;;4.28;1.20;;;;;;;23.50;39.21;101949.97;5092263;28;20078;-67
2022/09/01 07:44:38;;;;;;;4.90;1.38;;;;;;;23.69;38.90;101957.06;4970765;28;20046;-67
2022/09/01 07:47:28;;;;;;;3.30;1.40;;;;;;;23.82;39.19;101956.63;5086290;28;20043;-67
2022/09/01 07:50:14;;;;;;;2.33;1.42;;;;;;;23.95;39.02;101949.59;5092273;28;20496;-67
2022/09/01 07:53:03;;;;;;;7.40;1.25;;;;;;;24.07;38.75;101953.72;5073278;28;20074;-69
2022/09/01 07:55:33;;;;;;;2.88;1.10;;;;;;;24.20;38.62;101946.88;5063074;28;20561;-68
2022/09/01 07:58:00;;;;;;;3.05;1.30;;;;;;;24.38;38.55;101951.19;5067161;28;20044;-69
2022/09/01 08:00:30;;;;;;;8.07;1.30;;;;;;;24.55;37.99;101952.06;5070792;28;20136;-68
2022/09/01 08:03:01;;;;;;;3.03;1.35;;;;;;;24.69;38.62;101951.34;5071938;28;20068;-68
2022/09/01 08:05:30;;;;;;;3.17;1.35;;;;;;;24.84;38.13;101945.13;5054013;28;20399;-68
2022/09/01 08:07:57;;;;;;;8.65;1.40;;;;;;;25.03;37.89;101953.88;5056211;28;20106;-68
2022/09/01 08:10:29;;;;;;;9.02;1.67;;;;;;;25.20;37.56;101945.56;5064423;28;20436;-68
2022/09/01 08:12:56;;;;;;;4.35;1.42;;;;;;;25.32;37.41;101949.66;5070960;28;20040;-68
2022/09/01 08:15:29;;;;;;;3.22;1.08;;;;;;;25.46;37.00;101956.28;5074434;28;20055;-67
2022/09/01 08:18:16;;;;;;;2.10;1.30;;;;;;;25.59;37.06;101945.56;5070571;28;20036;-68
2022/09/01 08:20:44;;;;;;;1.20;1.10;;;;;;;25.71;36.95;101948.78;5072102;28;20041;-67
2022/09/01 08:23:42;;;;;;;3.10;1.10;;;;;;;25.90;36.56;101951.06;5062497;28;20114;-69
2022/09/01 08:26:15;;;;;;;2.65;1.00;;;;;;;26.04;36.12;101952.19;5070821;28;20461;-68
2022/09/01 08:28:42;;;;;;;3.38;1.00;;;;;;;26.18;36.45;101954.16;5070703;28;20040;-67
2022/09/01 08:31:26;;;;;;;8.90;1.10;;;;;;;26.39;36.05;101948.84;5068914;28;20401;-67
2022/09/01 08:33:58;;;;;;;2.90;1.10;;;;;;;26.54;35.68;101949.72;5070499;28;20077;-68
2022/09/01 08:36:25;;;;;;;3.72;1.02;;;;;;;26.65;35.47;101951.16;5070866;28;20102;-68
2022/09/01 08:38:53;;;;;;;2.05;0.82;;;;;;;26.81;35.40;101950.16;5070903;28;20113;-68
2022/09/01 08:41:43;;;;;;;1.63;0.90;;;;;;;26.96;35.24;101948.28;5069089;28;20572;-68
2022/09/01 08:44:36;;;;;;;3.00;0.90;;;;;;;27.16;35.39;101943.91;5070208;28;20533;-67
2022/09/01 08:47:07;;;;;;;2.60;1.00;;;;;;;27.34;35.18;101945.41;5070548;28;20044;-67
2022/09/01 08:49:44;;;;;;;2.20;0.90;;;;;;;27.49;34.66;101944.34;5072460;28;20032;-68
2022/09/01 08:52:23;;;;;;;2.58;0.93;;;;;;;27.60;34.43;101945.78;5070407;28;20055;-68
2022/09/01 08:55:02;;;;;;;4.03;1.05;;;;;;;27.74;34.20;101938.53;5070834;28;20059;-69
2022/09/01 08:57:38;;;;;;;4.00;1.15;;;;;;;27.85;33.80;101944.41;5072976;28;20051;-70
2022/09/01 09:00:22;;;;;;;2.80;1.02;;;;;;;27.95;33.66;101948.75;5075833;28;20094;-70
2022/09/01 09:03:30;;;;;;;6.18;0.90;;;;;;;28.06;33.13;101942.69;5072500;28;20440;-69
2022/09/01 09:06:24;;;;;;;2.33;0.85;;;;;;;28.20;32.83;101941.75;5075057;28;20041;-69
2022/09/01 09:08:59;;;;;;;1.60;0.75;;;;;;;28.24;32.35;101932.09;5075454;28;20049;-67
2022/09/01 09:11:39;;;;;;;2.33;0.73;;;;;;;28.29;32.08;101940.63;5071237;28;20525;-70
2022/09/01 09:14:22;;;;;;;4.43;0.80;;;;;;;28.34;32.01;101932.59;5066541;28;20076;-69
2022/09/01 09:16:53;;;;;;;2.47;0.95;;;;;;;28.37;31.76;101937.72;5076303;28;20119;-69
2022/09/01 09:19:39;;;;;;;4.25;1.10;;;;;;;28.41;31.66;101936.28;5094104;28;20054;-70
2022/09/01 09:22:09;;;;;;;3.53;0.90;;;;;;;28.49;31.73;101935.28;5093920;28;20478;-69
2022/09/01 09:24:51;;;;;;;4.13;0.93;;;;;;;28.56;31.31;101929.78;5094150;28;20083;-70
2022/09/01 09:27:18;;;;;;;1.77;0.80;;;;;;;28.65;31.51;101929.44;5093800;28;20040;-69
2022/09/01 09:29:47;;;;;;;2.45;0.68;;;;;;;28.78;31.43;101924.00;5094051;28;20056;-69
2022/09/01 09:32:13;;;;;;;2.20;0.70;;;;;;;28.92;31.05;101924.97;5093625;28;20264;-69
2022/09/01 09:35:29;;;;;;;4.03;1.05;;;;;;;29.05;30.67;101918.69;5093923;28;20444;-70
2022/09/01 09:38:18;;;;;;;5.53;1.10;;;;;;;29.09;30.17;101919.97;5087054;28;20430;-66
2022/09/01 09:41:18;;;;;;;1.08;0.60;;;;;;;29.14;30.19;101919.38;5071175;28;20505;-65
2022/09/01 09:44:10;;;;;;;2.72;1.00;;;;;;;29.20;29.91;101910.25;5093694;28;20555;-65
2022/09/01 09:46:38;;;;;;;;;;;;;;;29.22;30.04;101916.41;5088584;28;20060;-65
2022/09/01 09:49:19;;;;;;;6.18;0.90;;;;;;;29.31;30.05;101912.41;5077920;28;20491;-65
2022/09/01 09:52:02;;;;;;;3.25;0.70;;;;;;;29.35;29.47;101911.78;5073105;28;20032;-64
2022/09/01 09:54:34;;;;;;;2.60;0.80;;;;;;;29.36;29.32;101905.19;5073463;28;20037;-65
2022/09/01 09:57:07;;;;;;;4.40;0.90;;;;;;;29.45;29.20;101903.13;5078655;28;20497;-64
2022/09/01 10:00:02;;;;;;;5.93;0.80;;;;;;;29.53;28.91;101888.25;5090457;28;20504;-65
2022/09/01 10:02:44;;;;;;;1.77;0.70;;;;;;;29.67;29.20;101892.75;5048941;28;20057;-65
2022/09/01 10:05:35;;;;;;;1.65;0.70;;;;;;;29.85;28.80;101889.41;5085851;28;20132;-65
2022/09/01 10:08:05;;;;;;;2.75;0.70;;;;;;;30.00;28.65;101893.69;5080041;28;20040;-65
2022/09/01 10:10:47;;;;;;;1.58;0.50;;;;;;;30.11;28.10;101883.91;5088657;28;20043;-64
2022/09/01 10:13:25;;;;;;;1.35;0.60;;;;;;;30.22;28.01;101888.81;5054978;28;20391;-64
2022/09/01 10:15:55;;;;;;;7.93;0.82;;;;;;;30.31;27.62;101878.38;5081629;28;20072;-64
2022/09/01 10:18:37;;;;;;;2.42;0.90;;;;;;;30.39;27.53;101889.22;5092918;28;20051;-65
2022/09/01 10:21:11;;;;;;;2.47;0.82;;;;;;;30.51;27.30;101883.91;5092768;28;20067;-67
2022/09/01 10:23:42;;;;;;;1.45;0.50;;;;;;;30.63;27.30;101877.53;5061235;28;20478;-67
2022/09/01 10:26:36;;;;;;;2.65;0.80;;;;;;;30.77;26.65;101875.56;5072903;28;20394;-67
2022/09/01 10:29:33;;;;;;;3.80;1.13;;;;;;;30.89;26.47;101887.69;5072099;28;20062;-67
2022/09/01 10:32:12;;;;;;;2.85;0.60;;;;;;;31.01;25.98;101879.56;5063069;28;20092;-67
2022/09/01 10:35:00;;;;;;;5.72;0.70;;;;;;;31.12;26.21;101866.91;5093010;28;20040;-67
2022/09/01 10:37:28;;;;;;;0.98;0.50;;;;;;;31.22;25.67;101868.22;5092850;28;20489;-67
2022/09/01 10:40:10;;;;;;;2.45;0.60;;;;;;;31.35;25.08;101875.63;5092465;28;20044;-67
2022/09/01 10:42:41;;;;;;;1.77;0.80;;;;;;;31.45;24.83;101862.09;5090490;28;20051;-68
2022/09/01 10:45:31;;;;;;;2.90;0.77;;;;;;;31.55;24.52;101856.91;5092473;28;20040;-67
2022/09/01 10:48:19;;;;;;;1.58;0.60;;;;;;;31.61;24.34;101861.56;5091900;28;20387;-67
2022/09/01 10:51:28;;;;;;;1.80;0.52;;;;;;;31.71;24.44;101854.72;5092679;28;20070;-67
2022/09/01 10:54:28;;;;;;;1.88;0.43;;;;;;;31.79;24.32;101852.50;5072219;28;20032;-68
2022/09/01 10:56:57;;;;;;;3.28;0.50;;;;;;;31.83;23.68;101850.13;5071906;28;20041;-66
2022/09/01 10:59:34;;;;;;;2.45;0.52;;;;;;;31.86;23.58;101846.91;5072390;28;20070;-67
2022/09/01 11:02:14;;;;;;;1.85;0.55;;;;;;;31.88;23.56;101850.31;5091250;28;20082;-65
2022/09/01 11:04:57;;;;;;;1.00;0.50;;;;;;;31.91;23.39;101847.06;5092307;28;20406;-66
2022/09/01 11:07:33;;;;;;;1.10;0.60;;;;;;;31.95;23.14;101851.09;5092404;28;20075;-66
2022/09/01 11:10:22;;;;;;;;;;;;;;;32.05;23.63;101850.63;5090962;28;20052;-66
2022/09/01 11:13:04;;;;;;;1.63;0.57;;;;;;;32.19;23.28;101858.63;5092044;28;19942;-66
2022/09/01 11:15:34;;;;;;;1.20;0.52;;;;;;;32.27;23.25;101842.75;5092394;28;20044;-66
2022/09/01 11:18:06;;;;;;;0.77;0.40;;;;;;;32.32;22.99;101845.69;5092338;28;20036;-66
2022/09/01 11:20:41;;;;;;;2.17;0.50;;;;;;;32.42;22.60;101841.31;5090815;28;20489;-66
2022/09/01 11:23:33;;;;;;;1.00;0.35;;;;;;;32.52;22.51;101840.78;5090972;28;20036;-66
2022/09/01 11:26:31;;;;;;;1.50;0.43;;;;;;;32.66;22.17;101841.50;5092186;28;20441;-66
2022/09/01 11:28:58;;;;;;;1.50;0.60;;;;;;;32.74;21.93;101846.78;5091768;28;20040;-67
2022/09/01 11:31:29;;;;;;;1.58;0.60;;;;;;;32.72;21.49;101847.00;5074459;28;20037;-67
2022/09/01 11:34:09;;;;;;;1.90;0.50;;;;;;;32.68;21.51;101848.50;5071738;28;20427;-68
2022/09/01 11:36:48;;;;;;;3.60;0.50;;;;;;;32.68;21.47;101842.94;5053860;28;20080;-68
2022/09/01 11:39:18;;;;;;;0.70;0.43;;;;;;;32.71;21.22;101842.53;5081117;28;20044;-68
2022/09/01 11:41:49;;;;;;;3.22;0.57;;;;;;;32.73;21.24;101820.03;5077856;28;20040;-67
2022/09/01 11:44:41;;;;;;;4.35;0.60;;;;;;;32.75;21.01;101829.84;5072255;28;20434;-68
2022/09/01 11:47:26;;;;;;;2.80;0.68;;;;;;;32.83;20.79;101814.81;5071761;28;20044;-71
2022/09/01 11:50:15;;;;;;;0.80;0.40;;;;;;;32.75;20.89;101818.72;5081751;28;20048;-67
2022/09/01 11:52:52;;;;;;;2.60;0.70;;;;;;;32.73;20.35;101820.88;5091531;28;20040;-66
2022/09/01 11:55:31;;;;;;;0.98;0.50;;;;;;;32.71;20.24;101825.84;5092873;28;20050;-67
2022/09/01 11:57:58;;;;;;;2.22;0.55;;;;;;;32.69;20.63;101824.34;5092417;28;20032;-67
2022/09/01 12:00:37;;;;;;;0.70;0.40;;;;;;;32.66;20.12;101820.09;5091364;28;20040;-67
2022/09/01 12:03:24;;;;;;;1.00;0.70;;;;;;;32.66;20.06;101808.09;5090842;28;20047;-65
2022/09/01 12:05:58;;;;;;;0.75;0.40;;;;;;;32.71;20.43;101805.50;5091246;28;20089;-66
2022/09/01 12:08:29;;;;;;;1.10;0.52;;;;;;;32.77;20.53;101807.38;5091114;28;20044;-66
2022/09/01 12:11:08;;;;;;;2.55;0.50;;;;;;;32.89;20.62;101804.69;5091093;28;20083;-66
2022/09/01 12:13:39;;;;;;;2.15;0.60;;;;;;;33.02;20.47;101804.50;5090928;28;20110;-66